Hauptseite
METAR-TAF:

METAR-TAF

Flughäfen :

Tarawa, Kiribati

Flughafen Bonriki

Breite: 01-21N, Länge: 172-55E, Höhe: 2 m

Beobachtung

Neuester Wetterbericht von vor 10 Minuten, um 12:00 UTC
Wind 11 kt aus Ost
Temperatur 28°C
Luftfeuchtigkeit 74%
Luftdruck 1011 hPa
Sichtweite 10 km oder mehr
Aufgelockert bewölkt in der Höhe von 1900 ft
Durchbrochene Bewölkung in der Höhe von 30000 ft

METAR: NGTA 211200Z 09011KT 9999 SCT019 BKN300 28/23 Q1011

Zeit: 02:10 (12:10 UTC)

Prognose

Neuester Wetterbericht von vor 38 Minuten, um 11:32 UTC
Gültige Prognose vom 21 um 12 UTC bis 22 um 12 UTC
Wind 8 kt aus Ost
Sichtweite 10 km oder mehr
Aufgelockert bewölkt in der Höhe von 1800 ft
Aufgelockert bewölkt in der Höhe von 10000 ft

TAF: NGTA 211132Z 2112/2212 10008KT 9999 SCT018 SCT100

Wetterbeobachtungen und Prognosen von mehr als 4000 Flughäfen (METAR und TAF Bericht).

Die verfügbaren Stationen werden durch gelbe und rote Markierungen auf der Karte dargestellt.

Führen Sie die Maus auf sie, um den Namen der Station zu sehen.

Darauf klicken, um die Beobachtung von Wetterbeobachtungen und Prognosen zu sehen.

Um die Karte zu ändern : klicken Sie auf den grünen Tasten mit einem schwarzen Kreuz Zum Vergrößern, auf den grünen Button mit einem Gedankenstrich zu verkleinern, oder auf die grünen Pfeile für benachbarte Karten.


METAR-TAF: